CJR2 weather

Luseland Airport
Luseland, Saskatchewan, Canada

Public forecast

Using degrees Celsius for public forecast. Weather courtesy of forecast.io.

METAR (pilot weather report)

Closest report is Kindersley Airport, 33.9 nm (62.9 km) SSE. Retrieved 2019/05/21 03:00 UTC (58 minutes ago):

CYKY 210300Z 16009G16KT 130V190 15SM SCT095 SCT260 13/M05 A2996 RMK AC4CI1 CI TR SLP154 DENSITY ALT 2600FT

TAF (pilot weather forecast)

Forecast is more than 12 hours old.

Closest forecast is North Battleford Airport, 58.9 nm (109.2 km) NE. Retrieved 2019/05/20 00:39 UTC (1 day ago):

TAF TAF CYQW 202338Z 2100/2112 16015G25KT P6SM SCT080 FM210300 11010KT P6SM FEW080 RMK FCST BASED ON AUTO OBS. NXT FCST BY 210600Z